sensor_id;sensor_type;location;lat;lon;timestamp;pressure;altitude;pressure_sealevel;temperature;humidity
10167;BME280;62970;53.130;8.244;2023-04-19T09:14:14;103017.38;;;10.37;40.78
10167;BME280;62970;53.130;8.244;2023-04-19T09:16:45;103015.66;;;10.39;40.52
10167;BME280;62970;53.130;8.244;2023-04-19T09:19:18;103009.63;;;10.44;39.89
10167;BME280;62970;53.130;8.244;2023-04-19T09:21:48;103006.16;;;10.45;39.27
10167;BME280;62970;53.130;8.244;2023-04-19T09:24:19;102992.22;;;10.43;38.74
10167;BME280;62970;53.130;8.244;2023-04-19T09:27:05;102986.16;;;10.44;39.00
10167;BME280;62970;53.130;8.244;2023-04-19T09:29:43;102987.03;;;10.43;38.75
10167;BME280;62970;53.130;8.244;2023-04-19T09:32:22;102993.16;;;10.47;38.10
10167;BME280;62970;53.130;8.244;2023-04-19T09:34:54;102980.97;;;10.46;37.98
10167;BME280;62970;53.130;8.244;2023-04-19T09:37:25;102985.31;;;10.47;37.86
10167;BME280;62970;53.130;8.244;2023-04-19T09:39:55;102973.16;;;10.47;38.12
10167;BME280;62970;53.130;8.244;2023-04-19T09:45:03;102961.91;;;10.51;38.41
10167;BME280;62970;53.130;8.244;2023-04-19T09:47:33;102954.16;;;10.59;38.30
10167;BME280;62970;53.130;8.244;2023-04-19T09:50:06;102969.88;;;10.65;37.13
10167;BME280;62970;53.130;8.244;2023-04-19T09:52:38;102962.09;;;10.70;37.19
10167;BME280;62970;53.130;8.244;2023-04-19T09:55:11;102956.84;;;10.67;36.74
10167;BME280;62970;53.130;8.244;2023-04-19T09:57:41;102962.06;;;10.67;36.72
10167;BME280;62970;53.130;8.244;2023-04-19T10:00:16;102962.91;;;10.66;36.25
10167;BME280;62970;53.130;8.244;2023-04-19T10:02:51;102957.69;;;10.64;36.47
10167;BME280;62970;53.130;8.244;2023-04-19T10:05:23;102955.94;;;10.65;36.94
10167;BME280;62970;53.130;8.244;2023-04-19T10:07:53;102949.91;;;10.67;36.32
10167;BME280;62970;53.130;8.244;2023-04-19T10:10:24;102939.50;;;10.70;37.12
10167;BME280;62970;53.130;8.244;2023-04-19T10:13:00;102945.63;;;10.77;37.15
10167;BME280;62970;53.130;8.244;2023-04-19T10:15:36;102936.13;;;10.82;36.83
10167;BME280;62970;53.130;8.244;2023-04-19T10:18:07;102926.59;;;10.87;37.36
10167;BME280;62970;53.130;8.244;2023-04-19T10:20:46;102934.47;;;10.90;35.88
10167;BME280;62970;53.130;8.244;2023-04-19T10:23:23;102930.16;;;10.95;36.62
10167;BME280;62970;53.130;8.244;2023-04-19T10:28:28;102918.03;;;11.03;37.47
10167;BME280;62970;53.130;8.244;2023-04-19T10:33:41;102907.72;;;11.19;37.32
10167;BME280;62970;53.130;8.244;2023-04-19T10:36:14;102895.56;;;11.24;37.00
10167;BME280;62970;53.130;8.244;2023-04-19T10:38:46;102898.19;;;11.27;36.90
10167;BME280;62970;53.130;8.244;2023-04-19T10:41:18;102887.78;;;11.31;36.87
10167;BME280;62970;53.130;8.244;2023-04-19T10:44:08;102897.41;;;11.38;36.62
10167;BME280;62970;53.130;8.244;2023-04-19T10:46:41;102893.06;;;11.40;36.39
10167;BME280;62970;53.130;8.244;2023-04-19T10:49:13;102885.28;;;11.45;36.40
10167;BME280;62970;53.130;8.244;2023-04-19T10:51:51;102878.31;;;11.45;34.90
10167;BME280;62970;53.130;8.244;2023-04-19T10:54:32;102867.91;;;11.50;34.26
10167;BME280;62970;53.130;8.244;2023-04-19T10:57:07;102860.94;;;11.54;35.73
10167;BME280;62970;53.130;8.244;2023-04-19T10:59:39;102846.19;;;11.60;35.67
10167;BME280;62970;53.130;8.244;2023-04-19T11:02:27;102860.13;;;11.62;36.29
10167;BME280;62970;53.130;8.244;2023-04-19T11:05:05;102843.59;;;11.66;35.66
10167;BME280;62970;53.130;8.244;2023-04-19T11:07:40;102843.59;;;11.69;35.26
10167;BME280;62970;53.130;8.244;2023-04-19T11:10:11;102844.50;;;11.77;35.95
10167;BME280;62970;53.130;8.244;2023-04-19T11:12:43;102827.97;;;11.77;35.38
10167;BME280;62970;53.130;8.244;2023-04-19T11:15:13;102827.94;;;11.74;35.27
10167;BME280;62970;53.130;8.244;2023-04-19T11:17:43;102818.38;;;11.76;35.47
10167;BME280;62970;53.130;8.244;2023-04-19T11:20:16;102820.13;;;11.82;35.05
10167;BME280;62970;53.130;8.244;2023-04-19T11:25:22;102804.47;;;11.88;35.61
10167;BME280;62970;53.130;8.244;2023-04-19T11:27:53;102800.13;;;11.93;34.72
10167;BME280;62970;53.130;8.244;2023-04-19T11:30:29;102787.94;;;11.96;35.27
10167;BME280;62970;53.130;8.244;2023-04-19T11:32:59;102785.31;;;11.98;34.33
10167;BME280;62970;53.130;8.244;2023-04-19T11:35:33;102787.06;;;12.00;32.65
10167;BME280;62970;53.130;8.244;2023-04-19T11:38:03;102780.97;;;12.03;34.38
10167;BME280;62970;53.130;8.244;2023-04-19T11:40:33;102780.13;;;12.07;34.90
10167;BME280;62970;53.130;8.244;2023-04-19T11:43:03;102778.38;;;12.13;34.63
10167;BME280;62970;53.130;8.244;2023-04-19T11:45:35;102780.13;;;12.19;34.94
10167;BME280;62970;53.130;8.244;2023-04-19T11:48:12;102760.94;;;12.23;34.86
10167;BME280;62970;53.130;8.244;2023-04-19T11:50:45;102773.16;;;12.24;34.25
10167;BME280;62970;53.130;8.244;2023-04-19T11:53:20;102771.41;;;12.23;34.03
10167;BME280;62970;53.130;8.244;2023-04-19T11:55:54;102778.38;;;12.26;34.02
10167;BME280;62970;53.130;8.244;2023-04-19T11:58:26;102768.81;;;12.28;34.73
10167;BME280;62970;53.130;8.244;2023-04-19T12:01:03;102760.97;;;12.31;33.96
10167;BME280;62970;53.130;8.244;2023-04-19T12:03:34;102756.59;;;12.34;34.40
10167;BME280;62970;53.130;8.244;2023-04-19T12:06:12;102753.97;;;12.40;32.84
10167;BME280;62970;53.130;8.244;2023-04-19T12:08:45;102744.38;;;12.44;34.32
10167;BME280;62970;53.130;8.244;2023-04-19T12:11:18;102739.16;;;12.49;33.86
10167;BME280;62970;53.130;8.244;2023-04-19T12:16:33;102742.63;;;12.57;33.63
10167;BME280;62970;53.130;8.244;2023-04-19T12:19:13;102742.66;;;12.58;33.61
10167;BME280;62970;53.130;8.244;2023-04-19T12:21:48;102737.47;;;12.63;33.54
10167;BME280;62970;53.130;8.244;2023-04-19T12:24:19;102738.34;;;12.63;32.95
10167;BME280;62970;53.130;8.244;2023-04-19T12:26:57;102740.06;;;12.61;32.25
10167;BME280;62970;53.130;8.244;2023-04-19T12:29:30;102740.06;;;12.66;33.61
10167;BME280;62970;53.130;8.244;2023-04-19T12:32:00;102735.72;;;12.68;33.18
10167;BME280;62970;53.130;8.244;2023-04-19T12:34:35;102731.34;;;12.70;33.06
10167;BME280;62970;53.130;8.244;2023-04-19T12:37:08;102726.97;;;12.73;33.13
10167;BME280;62970;53.130;8.244;2023-04-19T12:42:06;102713.88;;;12.80;32.69
10167;BME280;62970;53.130;8.244;2023-04-19T12:44:38;102722.59;;;12.80;31.75
10167;BME280;62970;53.130;8.244;2023-04-19T12:47:08;102716.50;;;12.81;32.52
10167;BME280;62970;53.130;8.244;2023-04-19T12:49:40;102721.72;;;12.83;32.00
10167;BME280;62970;53.130;8.244;2023-04-19T12:52:13;102707.75;;;12.82;32.29
10167;BME280;62970;53.130;8.244;2023-04-19T12:54:45;102697.28;;;12.82;31.88
10167;BME280;62970;53.130;8.244;2023-04-19T12:57:16;102694.66;;;12.82;31.54
10167;BME280;62970;53.130;8.244;2023-04-19T12:59:46;102692.06;;;12.82;31.95
10167;BME280;62970;53.130;8.244;2023-04-19T13:02:15;102697.28;;;12.81;31.55
10167;BME280;62970;53.130;8.244;2023-04-19T13:04:50;102702.53;;;12.79;31.60
10167;BME280;62970;53.130;8.244;2023-04-19T13:07:25;102694.69;;;12.76;31.38
10167;BME280;62970;53.130;8.244;2023-04-19T13:09:55;102689.44;;;12.78;31.66
10167;BME280;62970;53.130;8.244;2023-04-19T13:12:27;102682.47;;;12.81;31.13
10167;BME280;62970;53.130;8.244;2023-04-19T13:14:56;102682.44;;;12.86;31.33
10167;BME280;62970;53.130;8.244;2023-04-19T13:17:26;102681.53;;;12.93;30.89
10167;BME280;62970;53.130;8.244;2023-04-19T13:19:58;102682.41;;;12.93;30.14
10167;BME280;62970;53.130;8.244;2023-04-19T13:22:31;102667.59;;;12.91;30.83
10167;BME280;62970;53.130;8.244;2023-04-19T13:25:03;102669.34;;;12.90;30.25
10167;BME280;62970;53.130;8.244;2023-04-19T13:27:33;102658.88;;;12.89;30.43
10167;BME280;62970;53.130;8.244;2023-04-19T13:30:06;102677.19;;;12.92;30.33
10167;BME280;62970;53.130;8.244;2023-04-19T13:32:36;102646.63;;;12.92;29.99
10167;BME280;62970;53.130;8.244;2023-04-19T13:35:06;102659.72;;;12.91;30.18
10167;BME280;62970;53.130;8.244;2023-04-19T13:37:40;102662.34;;;12.91;29.77
10167;BME280;62970;53.130;8.244;2023-04-19T13:40:10;102654.50;;;12.89;28.17
10167;BME280;62970;53.130;8.244;2023-04-19T13:42:41;102642.28;;;12.90;29.25
10167;BME280;62970;53.130;8.244;2023-04-19T13:45:13;102642.28;;;12.88;29.03
10167;BME280;62970;53.130;8.244;2023-04-19T13:47:47;102645.81;;;12.84;28.85
10167;BME280;62970;53.130;8.244;2023-04-19T13:50:20;102640.56;;;12.83;28.44
10167;BME280;62970;53.130;8.244;2023-04-19T13:52:52;102641.44;;;12.85;28.48
10167;BME280;62970;53.130;8.244;2023-04-19T13:55:21;102651.00;;;12.90;29.20
10167;BME280;62970;53.130;8.244;2023-04-19T13:57:51;102639.66;;;12.91;28.79
10167;BME280;62970;53.130;8.244;2023-04-19T14:00:21;102630.03;;;12.95;28.90
10167;BME280;62970;53.130;8.244;2023-04-19T14:02:50;102637.00;;;12.99;29.33
10167;BME280;62970;53.130;8.244;2023-04-19T14:05:28;102637.84;;;13.05;28.90
10167;BME280;62970;53.130;8.244;2023-04-19T14:08:02;102624.75;;;13.05;29.16
10167;BME280;62970;53.130;8.244;2023-04-19T14:10:31;102636.97;;;13.06;29.62
10167;BME280;62970;53.130;8.244;2023-04-19T14:13:00;102628.28;;;13.01;29.51
10167;BME280;62970;53.130;8.244;2023-04-19T14:15:30;102632.69;;;12.92;29.24
10167;BME280;62970;53.130;8.244;2023-04-19T14:18:01;102621.38;;;12.81;28.98
10167;BME280;62970;53.130;8.244;2023-04-19T14:20:30;102622.28;;;12.75;28.37
10167;BME280;62970;53.130;8.244;2023-04-19T14:23:05;102621.41;;;12.73;28.67
10167;BME280;62970;53.130;8.244;2023-04-19T14:25:37;102626.63;;;12.76;28.80
10167;BME280;62970;53.130;8.244;2023-04-19T14:28:06;102622.25;;;12.80;28.94
10167;BME280;62970;53.130;8.244;2023-04-19T14:30:37;102623.09;;;12.88;29.64
10167;BME280;62970;53.130;8.244;2023-04-19T14:33:06;102620.47;;;12.92;29.19
10167;BME280;62970;53.130;8.244;2023-04-19T14:35:37;102623.06;;;12.97;28.44
10167;BME280;62970;53.130;8.244;2023-04-19T14:38:10;102627.44;;;12.92;28.06
10167;BME280;62970;53.130;8.244;2023-04-19T14:40:39;102615.25;;;12.88;28.68
10167;BME280;62970;53.130;8.244;2023-04-19T14:43:13;102615.25;;;12.85;28.97
10167;BME280;62970;53.130;8.244;2023-04-19T14:45:49;102617.88;;;12.85;27.18
10167;BME280;62970;53.130;8.244;2023-04-19T14:48:19;102617.00;;;12.87;28.37
10167;BME280;62970;53.130;8.244;2023-04-19T14:50:48;102612.63;;;12.85;28.35
10167;BME280;62970;53.130;8.244;2023-04-19T14:53:22;102605.69;;;12.79;28.38
10167;BME280;62970;53.130;8.244;2023-04-19T14:55:53;102603.94;;;12.77;28.24
10167;BME280;62970;53.130;8.244;2023-04-19T14:58:23;102603.94;;;12.77;28.73
10167;BME280;62970;53.130;8.244;2023-04-19T15:00:53;102608.31;;;12.76;28.01
10167;BME280;62970;53.130;8.244;2023-04-19T15:03:23;102612.69;;;12.72;28.11
10167;BME280;62970;53.130;8.244;2023-04-19T15:05:55;102603.97;;;12.66;28.11
10167;BME280;62970;53.130;8.244;2023-04-19T15:08:28;102606.63;;;12.63;27.93
10167;BME280;62970;53.130;8.244;2023-04-19T15:13:33;102610.06;;;12.53;27.66
10167;BME280;62970;53.130;8.244;2023-04-19T15:16:03;102600.50;;;12.44;27.59
10167;BME280;62970;53.130;8.244;2023-04-19T15:31:34;102626.72;;;12.09;26.67
10167;BME280;62970;53.130;8.244;2023-04-19T15:34:03;102629.34;;;12.06;27.04
10167;BME280;62970;53.130;8.244;2023-04-19T15:54:44;102642.41;;;11.72;26.65
10167;BME280;62970;53.130;8.244;2023-04-19T15:57:24;102648.47;;;11.67;26.59
10167;BME280;62970;53.130;8.244;2023-04-19T15:59:54;102644.13;;;11.60;26.26
10167;BME280;62970;53.130;8.244;2023-04-19T16:02:23;102642.38;;;11.56;26.48
10167;BME280;62970;53.130;8.244;2023-04-19T16:10:07;102652.81;;;11.45;26.17
10167;BME280;62970;53.130;8.244;2023-04-19T16:46:19;102629.94;;;10.86;24.54
10167;BME280;62970;53.130;8.244;2023-04-19T19:00:08;102659.66;;;8.46;30.09
10167;BME280;62970;53.130;8.244;2023-04-19T19:05:13;102652.56;;;8.36;30.64
10167;BME280;62970;53.130;8.244;2023-04-19T20:44:13;102628.53;;;7.45;33.17
10167;BME280;62970;53.130;8.244;2023-04-19T20:46:42;102629.25;;;7.39;33.62
10167;BME280;62970;53.130;8.244;2023-04-19T20:49:14;102625.59;;;7.29;33.59
10167;BME280;62970;53.130;8.244;2023-04-19T20:51:43;102618.56;;;7.22;33.64
10167;BME280;62970;53.130;8.244;2023-04-19T20:54:14;102617.50;;;7.14;33.70
10167;BME280;62970;53.130;8.244;2023-04-19T20:56:45;102607.84;;;7.07;34.34
10167;BME280;62970;53.130;8.244;2023-04-19T20:59:18;102606.78;;;6.97;34.31
10167;BME280;62970;53.130;8.244;2023-04-19T21:01:47;102606.69;;;6.93;34.05
10167;BME280;62970;53.130;8.244;2023-04-19T21:04:17;102607.44;;;6.87;34.41
10167;BME280;62970;53.130;8.244;2023-04-19T21:06:47;102605.53;;;6.79;34.73
10167;BME280;62970;53.130;8.244;2023-04-19T21:09:17;102601.97;;;6.74;34.63
10167;BME280;62970;53.130;8.244;2023-04-19T21:11:47;102594.97;;;6.70;34.95
10167;BME280;62970;53.130;8.244;2023-04-19T21:14:19;102588.88;;;6.67;34.80
10167;BME280;62970;53.130;8.244;2023-04-19T21:16:48;102595.75;;;6.65;34.75
10167;BME280;62970;53.130;8.244;2023-04-19T21:19:18;102592.25;;;6.63;35.38
10167;BME280;62970;53.130;8.244;2023-04-19T21:21:47;102585.28;;;6.61;35.14
10167;BME280;62970;53.130;8.244;2023-04-19T21:24:16;102591.31;;;6.60;35.54
10167;BME280;62970;53.130;8.244;2023-04-19T21:26:45;102592.16;;;6.59;35.39
10167;BME280;62970;53.130;8.244;2023-04-19T21:29:18;102587.81;;;6.58;35.97
10167;BME280;62970;53.130;8.244;2023-04-19T21:31:47;102581.72;;;6.56;36.00
10167;BME280;62970;53.130;8.244;2023-04-19T21:34:16;102579.94;;;6.53;35.68
10167;BME280;62970;53.130;8.244;2023-04-19T21:36:45;102577.28;;;6.50;36.01
10167;BME280;62970;53.130;8.244;2023-04-19T21:39:14;102582.44;;;6.49;36.04
10167;BME280;62970;53.130;8.244;2023-04-19T21:41:44;102580.69;;;6.48;36.29
10167;BME280;62970;53.130;8.244;2023-04-19T21:44:13;102574.63;;;6.47;36.20
10167;BME280;62970;53.130;8.244;2023-04-19T21:46:45;102575.47;;;6.46;36.65
10167;BME280;62970;53.130;8.244;2023-04-19T21:49:15;102572.91;;;6.48;36.41
10167;BME280;62970;53.130;8.244;2023-04-19T21:51:44;102577.25;;;6.49;36.83
10167;BME280;62970;53.130;8.244;2023-04-19T21:54:13;102568.66;;;6.51;37.19
10167;BME280;62970;53.130;8.244;2023-04-19T21:56:43;102562.63;;;6.52;37.12
10167;BME280;62970;53.130;8.244;2023-04-19T21:59:12;102568.69;;;6.53;37.36
10167;BME280;62970;53.130;8.244;2023-04-19T22:01:44;102568.69;;;6.53;37.33
10167;BME280;62970;53.130;8.244;2023-04-19T22:04:13;102566.06;;;6.51;37.47
10167;BME280;62970;53.130;8.244;2023-04-19T22:06:43;102564.31;;;6.50;37.14
10167;BME280;62970;53.130;8.244;2023-04-19T22:09:12;102555.75;;;6.54;37.67
10167;BME280;62970;53.130;8.244;2023-04-19T22:11:42;102548.09;;;6.59;37.56
10167;BME280;62970;53.130;8.244;2023-04-19T22:14:11;102555.97;;;6.63;37.89
10167;BME280;62970;53.130;8.244;2023-04-19T22:16:45;102559.53;;;6.68;37.63
10167;BME280;62970;53.130;8.244;2023-04-19T22:19:15;102561.31;;;6.73;37.67
10167;BME280;62970;53.130;8.244;2023-04-19T22:21:45;102555.38;;;6.77;37.66
10167;BME280;62970;53.130;8.244;2023-04-19T22:24:14;102564.94;;;6.81;37.70
10167;BME280;62970;53.130;8.244;2023-04-19T22:26:46;102553.75;;;6.83;37.51
10167;BME280;62970;53.130;8.244;2023-04-19T22:29:18;102560.75;;;6.87;38.08
10167;BME280;62970;53.130;8.244;2023-04-19T22:31:50;102563.44;;;6.92;37.71
10167;BME280;62970;53.130;8.244;2023-04-19T22:34:19;102560.88;;;6.93;38.02
10167;BME280;62970;53.130;8.244;2023-04-19T22:36:49;102563.50;;;6.95;37.89
10167;BME280;62970;53.130;8.244;2023-04-19T22:39:18;102547.06;;;6.94;38.03
10167;BME280;62970;53.130;8.244;2023-04-19T22:41:49;102536.69;;;6.94;38.02
10167;BME280;62970;53.130;8.244;2023-04-19T22:44:18;102534.94;;;6.93;38.18
10167;BME280;62970;53.130;8.244;2023-04-19T22:46:54;102535.81;;;6.94;38.16
10167;BME280;62970;53.130;8.244;2023-04-19T22:49:23;102515.94;;;6.94;38.31
10167;BME280;62970;53.130;8.244;2023-04-19T22:51:54;102510.78;;;6.96;38.54
10167;BME280;62970;53.130;8.244;2023-04-19T22:54:27;102500.41;;;6.96;38.42
10167;BME280;62970;53.130;8.244;2023-04-19T22:56:56;102493.50;;;6.96;38.48
10167;BME280;62970;53.130;8.244;2023-04-19T22:59:25;102484.00;;;6.97;38.61
10167;BME280;62970;53.130;8.244;2023-04-19T23:01:57;102474.50;;;6.97;38.79
10167;BME280;62970;53.130;8.244;2023-04-19T23:04:26;102469.34;;;6.99;38.75
10167;BME280;62970;53.130;8.244;2023-04-19T23:09:29;102456.47;;;7.05;38.72
10167;BME280;62970;53.130;8.244;2023-04-19T23:14:34;102454.84;;;7.10;39.09
10167;BME280;62970;53.130;8.244;2023-04-19T23:24:52;102429.00;;;7.16;38.67
10167;BME280;62970;53.130;8.244;2023-04-19T23:27:21;102427.31;;;7.18;39.21
10167;BME280;62970;53.130;8.244;2023-04-19T23:29:50;102421.22;;;7.16;38.91
10167;BME280;62970;53.130;8.244;2023-04-19T23:32:20;102413.41;;;7.15;39.37
10167;BME280;62970;53.130;8.244;2023-04-19T23:34:49;102406.47;;;7.14;39.61
10167;BME280;62970;53.130;8.244;2023-04-19T23:37:18;102409.06;;;7.14;39.34
10167;BME280;62970;53.130;8.244;2023-04-19T23:39:48;102409.03;;;7.12;39.61
10167;BME280;62970;53.130;8.244;2023-04-19T23:42:19;102419.44;;;7.12;39.25
10167;BME280;62970;53.130;8.244;2023-04-19T23:44:49;102424.63;;;7.14;39.28
10167;BME280;62970;53.130;8.244;2023-04-19T23:47:20;102416.84;;;7.14;39.89
10167;BME280;62970;53.130;8.244;2023-04-19T23:49:49;102426.28;;;7.09;40.53
10167;BME280;62970;53.130;8.244;2023-04-19T23:52:18;102412.31;;;7.00;40.88
10167;BME280;62970;53.130;8.244;2023-04-19T23:54:48;102426.88;;;6.92;40.78
10167;BME280;62970;53.130;8.244;2023-04-19T23:57:21;102423.25;;;6.84;41.45
10167;BME280;62970;53.130;8.244;2023-04-19T23:59:50;102425.72;;;6.77;41.80
